Time;durP1;ratioP1;P1;durP2;ratioP2;P2;SDS_P1;SDS_P2;PMS_P1;PMS_P2;Temp;Humidity;BMP_temperature;BMP_pressure;BME280_temperature;BME280_humidity;BME280_pressure;Samples;Min_cycle;Max_cycle;Signal;HPM_P1;HPM_P2
2023/09/11 00:00:51;;;;;;;25.20;22.48;;;17.80;99.90;;;;;;4593959;19;20022;-69
2023/09/11 00:02:46;;;;;;;25.15;22.63;;;17.80;99.90;;;;;;4595752;19;20040;-69
2023/09/11 00:04:29;;;;;;;23.98;21.48;;;17.80;99.90;;;;;;4593835;19;20010;-69
2023/09/11 00:06:04;;;;;;;26.48;23.45;;;17.80;99.90;;;;;;4592895;19;20010;-69
2023/09/11 00:07:40;;;;;;;25.88;21.83;;;17.80;99.90;;;;;;4592797;19;20030;-69
2023/09/11 00:09:14;;;;;;;25.05;22.45;;;17.80;99.90;;;;;;4594007;19;19999;-69
2023/09/11 00:10:50;;;;;;;23.75;21.17;;;17.80;99.90;;;;;;4592544;19;20010;-69
2023/09/11 00:12:24;;;;;;;23.55;21.15;;;17.80;99.90;;;;;;4592678;19;20446;-69
2023/09/11 00:13:58;;;;;;;23.25;20.83;;;17.80;99.90;;;;;;4593293;19;20067;-69
2023/09/11 00:15:34;;;;;;;25.02;21.60;;;17.80;99.90;;;;;;4594031;19;20039;-69
2023/09/11 00:17:08;;;;;;;23.20;20.80;;;17.70;99.90;;;;;;4593897;19;19998;-69
2023/09/11 00:18:42;;;;;;;26.63;22.52;;;17.70;99.90;;;;;;4593870;19;20002;-69
2023/09/11 00:20:18;;;;;;;24.92;22.35;;;17.70;99.90;;;;;;4591169;19;20010;-69
2023/09/11 00:21:52;;;;;;;24.17;21.67;;;17.70;99.90;;;;;;4591392;19;20011;-69
2023/09/11 00:23:26;;;;;;;24.00;21.60;;;17.70;99.90;;;;;;4593389;19;20002;-69
2023/09/11 00:25:02;;;;;;;24.35;21.85;;;17.70;99.90;;;;;;4593466;19;20125;-69
2023/09/11 00:26:36;;;;;;;24.55;21.95;;;17.70;99.90;;;;;;4593285;19;20066;-69
2023/09/11 00:28:10;;;;;;;25.30;22.75;;;17.60;99.90;;;;;;4593400;19;19999;-69
2023/09/11 00:29:45;;;;;;;26.95;23.92;;;17.60;99.90;;;;;;4593276;19;20019;-69
2023/09/11 00:31:20;;;;;;;26.30;23.48;;;17.60;99.90;;;;;;4593595;19;20437;-69
2023/09/11 00:32:55;;;;;;;26.95;23.85;;;17.60;99.90;;;;;;4593515;19;20002;-69
2023/09/11 00:34:30;;;;;;;27.60;24.15;;;17.60;99.90;;;;;;4593326;19;20010;-69
2023/09/11 00:36:05;;;;;;;27.40;24.42;;;17.60;99.90;;;;;;4592131;19;20002;-69
2023/09/11 00:37:39;;;;;;;25.48;22.98;;;17.60;99.90;;;;;;4592886;19;20428;-69
2023/09/11 00:39:27;;;;;;;29.00;25.25;;;17.50;99.90;;;;;;4591692;19;20018;-69
2023/09/11 00:41:03;;;;;;;32.88;29.27;;;17.50;99.90;;;;;;4591971;19;20402;-69
2023/09/11 00:42:37;;;;;;;31.20;27.80;;;17.50;99.90;;;;;;4593308;19;20002;-69
2023/09/11 00:44:11;;;;;;;30.73;27.45;;;17.50;99.90;;;;;;4593212;19;20006;-69
2023/09/11 00:45:50;;;;;;;26.83;24.02;;;17.50;99.90;;;;;;4593405;19;20094;-69
2023/09/11 00:47:25;;;;;;;25.05;22.50;;;17.50;99.90;;;;;;4593017;19;20031;-69
2023/09/11 00:48:59;;;;;;;25.50;22.85;;;17.50;99.90;;;;;;4593159;19;20397;-69
2023/09/11 00:50:35;;;;;;;26.02;23.02;;;17.50;99.90;;;;;;4592056;19;20002;-69
2023/09/11 00:52:09;;;;;;;26.77;24.08;;;17.50;99.90;;;;;;4592801;19;20009;-69
2023/09/11 00:53:44;;;;;;;26.30;23.60;;;17.50;99.90;;;;;;4592796;19;20084;-69
2023/09/11 00:55:23;;;;;;;24.92;22.20;;;17.50;99.90;;;;;;4591537;19;20299;-69
2023/09/11 00:56:57;;;;;;;24.08;21.67;;;17.50;99.90;;;;;;4592386;19;20318;-69
2023/09/11 00:58:34;;;;;;;24.52;22.02;;;17.50;99.90;;;;;;4592809;19;20306;-69
2023/09/11 01:00:14;;;;;;;25.80;23.00;;;17.50;99.90;;;;;;4591966;19;20014;-69
2023/09/11 01:01:49;;;;;;;26.02;23.52;;;17.50;99.90;;;;;;4591870;19;20332;-69
2023/09/11 01:03:23;;;;;;;25.25;22.75;;;17.50;99.90;;;;;;4592655;19;20005;-69
2023/09/11 01:05:00;;;;;;;25.00;22.42;;;17.50;99.90;;;;;;4591336;19;20029;-69
2023/09/11 01:06:34;;;;;;;26.00;23.30;;;17.50;99.90;;;;;;4592764;19;20021;-69
2023/09/11 01:08:08;;;;;;;25.77;23.17;;;17.40;99.90;;;;;;4592495;19;20009;-69
2023/09/11 01:09:46;;;;;;;24.20;21.73;;;17.40;99.90;;;;;;4592329;19;20006;-69
2023/09/11 01:11:20;;;;;;;25.45;22.77;;;17.40;99.90;;;;;;4592475;19;20058;-69
2023/09/11 01:13:01;;;;;;;26.38;23.67;;;17.40;99.90;;;;;;4591056;19;20014;-69
2023/09/11 01:14:39;;;;;;;25.67;23.02;;;17.40;99.90;;;;;;4592234;19;20430;-69
2023/09/11 01:16:52;;;;;;;27.85;24.83;;;17.40;99.90;;;;;;4592345;19;20029;-69
2023/09/11 01:18:40;;;;;;;25.88;23.17;;;17.40;99.90;;;;;;4587864;19;20337;-69
2023/09/11 01:20:51;;;;;;;27.13;24.23;;;17.40;99.90;;;;;;4589334;19;19999;-69
2023/09/11 01:22:37;;;;;;;26.27;23.60;;;17.30;99.90;;;;;;4588395;19;20089;-69
2023/09/11 01:24:19;;;;;;;27.63;24.83;;;17.30;99.90;;;;;;4590150;19;19999;-69
2023/09/11 01:26:30;;;;;;;26.40;23.60;;;17.30;99.90;;;;;;4588659;19;20013;-69
2023/09/11 01:28:55;;;;;;;28.67;25.38;;;17.30;99.90;;;;;;4590072;19;19998;-69
2023/09/11 01:30:30;;;;;;;25.17;22.55;;;17.30;99.90;;;;;;4588872;19;20050;-69
2023/09/11 01:32:05;;;;;;;25.65;22.95;;;17.30;99.90;;;;;;4589588;19;20006;-69
2023/09/11 01:33:40;;;;;;;26.35;23.63;;;17.30;99.90;;;;;;4589705;19;20304;-69
2023/09/11 01:35:14;;;;;;;26.65;23.88;;;17.30;99.90;;;;;;4589823;19;20002;-69
2023/09/11 01:36:49;;;;;;;26.55;23.85;;;17.30;99.90;;;;;;4589556;19;20082;-69
2023/09/11 01:38:24;;;;;;;26.50;23.70;;;17.30;99.90;;;;;;4589948;19;20006;-69
2023/09/11 01:39:58;;;;;;;27.08;24.38;;;17.30;99.90;;;;;;4589158;19;20023;-69
2023/09/11 01:41:36;;;;;;;26.75;23.92;;;17.30;99.90;;;;;;4589253;19;20133;-69
2023/09/11 01:43:12;;;;;;;27.58;24.65;;;17.20;99.90;;;;;;4589751;19;20473;-69
2023/09/11 01:44:48;;;;;;;28.88;25.98;;;17.20;99.90;;;;;;4589489;19;20002;-69
2023/09/11 01:46:22;;;;;;;29.73;25.77;;;17.20;99.90;;;;;;4589459;19;20022;-69
2023/09/11 01:48:02;;;;;;;27.75;24.85;;;17.20;99.90;;;;;;4589264;19;20739;-69
2023/09/11 01:49:50;;;;;;;28.52;25.67;;;17.20;99.90;;;;;;4589055;19;20014;-69
2023/09/11 01:51:25;;;;;;;27.63;24.60;;;17.20;99.90;;;;;;4591674;19;20031;-69
2023/09/11 01:53:00;;;;;;;27.70;24.80;;;17.20;99.90;;;;;;4591694;19;20010;-69
2023/09/11 01:54:37;;;;;;;29.48;26.30;;;17.20;99.90;;;;;;4589027;19;20011;-69
2023/09/11 01:56:11;;;;;;;28.60;25.73;;;17.20;99.90;;;;;;4589484;19;20435;-69
2023/09/11 01:57:46;;;;;;;27.70;24.92;;;17.10;99.90;;;;;;4589194;19;19999;-69
2023/09/11 01:59:21;;;;;;;26.92;24.23;;;17.10;99.90;;;;;;4589310;19;20006;-69
2023/09/11 02:00:58;;;;;;;27.00;24.35;;;17.10;99.90;;;;;;4588539;19;20011;-69
2023/09/11 02:02:35;;;;;;;30.45;26.60;;;17.10;99.90;;;;;;4590745;19;20010;-69
2023/09/11 02:04:09;;;;;;;28.65;25.77;;;17.10;99.90;;;;;;4591799;19;20435;-69
2023/09/11 02:05:43;;;;;;;29.52;26.35;;;17.10;99.90;;;;;;4591765;19;20074;-69
2023/09/11 02:07:26;;;;;;;30.00;26.90;;;17.10;99.90;;;;;;4591488;19;20009;-69
2023/09/11 02:09:01;;;;;;;28.73;25.50;;;17.10;99.90;;;;;;4591771;19;20021;-69
2023/09/11 02:10:37;;;;;;;28.63;25.67;;;17.10;99.90;;;;;;4588114;19;20022;-69
2023/09/11 02:12:12;;;;;;;27.80;24.85;;;17.10;99.90;;;;;;4590834;19;20010;-69
2023/09/11 02:13:47;;;;;;;27.77;24.90;;;17.10;99.90;;;;;;4590000;19;19998;-69
2023/09/11 02:15:22;;;;;;;28.27;25.35;;;17.00;99.90;;;;;;4591331;19;20002;-69
2023/09/11 02:17:02;;;;;;;27.55;24.63;;;17.00;99.90;;;;;;4591909;19;20003;-69
2023/09/11 02:18:40;;;;;;;28.10;25.20;;;17.00;99.90;;;;;;4590292;19;20318;-69
2023/09/11 02:20:16;;;;;;;28.83;26.00;;;17.00;99.90;;;;;;4589788;19;20307;-69
2023/09/11 02:21:51;;;;;;;27.83;24.48;;;17.00;99.90;;;;;;4590903;19;20007;-69
2023/09/11 02:23:25;;;;;;;27.73;24.80;;;17.00;99.90;;;;;;4591317;19;20025;-69
2023/09/11 02:25:00;;;;;;;28.92;25.90;;;17.00;99.90;;;;;;4591120;19;20359;-69
2023/09/11 02:26:36;;;;;;;26.60;24.00;;;17.00;99.90;;;;;;4591333;19;20022;-69
2023/09/11 02:28:10;;;;;;;27.17;24.23;;;17.00;99.90;;;;;;4591192;19;20069;-69
2023/09/11 02:29:44;;;;;;;26.70;24.02;;;17.00;99.90;;;;;;4594325;19;20489;-69
2023/09/11 02:31:19;;;;;;;26.88;24.17;;;17.00;99.90;;;;;;4596077;19;20329;-69
2023/09/11 02:32:56;;;;;;;26.65;23.85;;;17.00;99.90;;;;;;4595835;19;20006;-69
2023/09/11 02:34:30;;;;;;;26.00;23.20;;;17.00;99.90;;;;;;4596019;19;20009;-69
2023/09/11 02:36:10;;;;;;;27.75;24.95;;;17.10;99.90;;;;;;4592999;19;20390;-69
2023/09/11 02:37:45;;;;;;;29.17;26.13;;;17.00;99.90;;;;;;4594882;19;20010;-69
2023/09/11 02:39:21;;;;;;;27.48;24.63;;;17.00;99.90;;;;;;4594056;19;20007;-69
2023/09/11 02:41:05;;;;;;;26.48;23.77;;;17.00;99.90;;;;;;4595371;19;20021;-69
2023/09/11 02:42:40;;;;;;;27.33;24.48;;;17.00;99.90;;;;;;4595337;19;20006;-69
2023/09/11 02:44:21;;;;;;;28.80;25.85;;;16.90;99.90;;;;;;4595492;19;20413;-69
2023/09/11 02:46:08;;;;;;;27.70;24.77;;;16.90;99.90;;;;;;4593477;19;20019;-69
2023/09/11 02:47:56;;;;;;;29.10;25.95;;;16.90;99.90;;;;;;4593427;19;20018;-69
2023/09/11 02:49:32;;;;;;;28.38;25.42;;;16.90;99.90;;;;;;4595291;19;20010;-69
2023/09/11 02:51:06;;;;;;;28.15;25.25;;;16.90;99.90;;;;;;4597234;19;20421;-69
2023/09/11 02:52:40;;;;;;;25.98;23.17;;;17.00;99.90;;;;;;4597182;19;20027;-69
2023/09/11 02:54:16;;;;;;;27.73;23.15;;;17.20;99.90;;;;;;4595523;19;20007;-69
2023/09/11 02:55:52;;;;;;;26.75;22.60;;;17.50;99.90;;;;;;4593723;19;20007;-69
2023/09/11 02:57:26;;;;;;;25.92;22.63;;;17.90;99.90;;;;;;4595110;19;20425;-69
2023/09/11 02:59:14;;;;;;;25.42;21.23;;;18.20;99.90;;;;;;4593252;19;20022;-69
2023/09/11 03:00:50;;;;;;;25.63;22.92;;;18.50;99.90;;;;;;4593893;19;20066;-69
2023/09/11 03:02:30;;;;;;;23.30;20.80;;;18.70;99.90;;;;;;4593483;19;20311;-69
2023/09/11 03:04:04;;;;;;;24.50;21.50;;;18.90;99.90;;;;;;4595232;19;20437;-69
2023/09/11 03:05:57;;;;;;;24.33;20.77;;;19.00;99.90;;;;;;4595020;19;20440;-69
2023/09/11 03:07:31;;;;;;;23.70;21.08;;;19.10;99.90;;;;;;4595011;19;20006;-69
2023/09/11 03:09:05;;;;;;;24.08;21.17;;;19.30;99.90;;;;;;4594984;19;19999;-70
2023/09/11 03:10:53;;;;;;;23.80;21.20;;;19.40;99.90;;;;;;4592713;19;20018;-69
2023/09/11 03:12:29;;;;;;;22.83;20.30;;;19.50;99.90;;;;;;4593575;19;20006;-69
2023/09/11 03:14:04;;;;;;;21.70;19.40;;;19.60;99.90;;;;;;4593533;19;20047;-69
2023/09/11 03:15:38;;;;;;;23.10;20.58;;;19.60;99.90;;;;;;4594443;19;20030;-69
2023/09/11 03:17:14;;;;;;;24.90;19.85;;;19.70;99.90;;;;;;4593437;19;20114;-69
2023/09/11 03:18:49;;;;;;;22.70;20.17;;;19.80;99.90;;;;;;4594790;19;20017;-69
2023/09/11 03:20:24;;;;;;;21.95;19.40;;;19.90;99.90;;;;;;4593933;19;20007;-69
2023/09/11 03:22:01;;;;;;;21.88;19.17;;;19.90;99.90;;;;;;4594263;19;20006;-69
2023/09/11 03:23:36;;;;;;;22.02;18.88;;;20.00;99.90;;;;;;4595138;19;20006;-69
2023/09/11 03:25:12;;;;;;;21.48;19.25;;;20.00;99.90;;;;;;4595197;19;20081;-69
2023/09/11 03:26:51;;;;;;;20.10;17.58;;;20.10;99.90;;;;;;4595273;19;20011;-69
2023/09/11 03:28:29;;;;;;;21.77;18.75;;;20.20;99.90;;;;;;4595166;19;20002;-69
2023/09/11 03:30:03;;;;;;;20.88;18.70;;;20.20;99.90;;;;;;4593536;19;20111;-69
2023/09/11 03:31:39;;;;;;;22.25;19.83;;;20.20;99.90;;;;;;4594918;19;19998;-69
2023/09/11 03:33:12;;;;;;;24.85;19.85;;;20.30;99.90;;;;;;4595412;19;20418;-69
2023/09/11 03:34:55;;;;;;;21.52;19.15;;;20.30;99.90;;;;;;4595043;19;20499;-69
2023/09/11 03:36:30;;;;;;;22.27;19.08;;;20.30;99.90;;;;;;4595058;19;20018;-69
2023/09/11 03:38:05;;;;;;;22.38;19.42;;;20.40;99.90;;;;;;4592538;19;20092;-69
2023/09/11 03:39:39;;;;;;;27.42;19.30;;;20.40;99.90;;;;;;4594370;19;20013;-69
2023/09/11 03:41:14;;;;;;;21.45;19.02;;;20.40;99.90;;;;;;4592700;19;20037;-69
2023/09/11 03:42:48;;;;;;;23.10;20.65;;;20.40;99.90;;;;;;4594858;19;20006;-69
2023/09/11 03:44:22;;;;;;;21.83;19.02;;;20.50;99.90;;;;;;4595098;19;20033;-69
2023/09/11 03:45:57;;;;;;;24.92;19.77;;;20.50;99.90;;;;;;4594868;19;20009;-69
2023/09/11 03:47:31;;;;;;;24.50;22.10;;;20.50;99.90;;;;;;4595109;19;20002;-69
2023/09/11 03:49:05;;;;;;;24.23;21.65;;;19.80;99.90;;;;;;4594769;19;19998;-69
2023/09/11 03:50:41;;;;;;;25.77;22.98;;;18.50;99.90;;;;;;4594766;19;20031;-69
2023/09/11 03:52:16;;;;;;;25.45;22.88;;;17.90;99.90;;;;;;4595634;19;20014;-69
2023/09/11 03:53:51;;;;;;;25.17;22.63;;;17.50;99.90;;;;;;4592293;19;20010;-69
2023/09/11 03:55:27;;;;;;;24.23;21.65;;;17.40;99.90;;;;;;4594121;19;20019;-69
2023/09/11 03:57:01;;;;;;;25.85;23.15;;;17.30;99.90;;;;;;4593597;19;20007;-69
2023/09/11 03:58:36;;;;;;;25.50;21.92;;;17.20;99.90;;;;;;4593119;19;20010;-69
2023/09/11 04:00:12;;;;;;;25.23;22.58;;;17.10;99.90;;;;;;4593562;19;20010;-69
2023/09/11 04:01:46;;;;;;;27.85;23.55;;;17.10;99.90;;;;;;4594081;19;20006;-69
2023/09/11 04:03:22;;;;;;;25.13;22.58;;;17.00;99.90;;;;;;4594397;19;20006;-69
2023/09/11 04:05:10;;;;;;;25.30;22.77;;;17.00;99.90;;;;;;4592558;19;20051;-69
2023/09/11 04:07:02;;;;;;;25.40;22.90;;;17.00;99.90;;;;;;4592727;19;20020;-69
2023/09/11 04:08:37;;;;;;;25.45;22.75;;;17.00;99.90;;;;;;4594766;19;20010;-70
2023/09/11 04:10:11;;;;;;;24.67;22.17;;;16.90;99.90;;;;;;4593932;19;20017;-69
2023/09/11 04:11:45;;;;;;;23.73;21.33;;;16.90;99.90;;;;;;4594256;19;20011;-69
2023/09/11 04:13:22;;;;;;;22.83;20.38;;;17.10;99.90;;;;;;4594311;19;20009;-69
2023/09/11 04:14:56;;;;;;;26.10;19.92;;;17.60;99.90;;;;;;4594141;19;20010;-69
2023/09/11 04:16:30;;;;;;;23.50;19.80;;;18.10;99.90;;;;;;4594459;19;20066;-69
2023/09/11 04:18:05;;;;;;;23.75;19.67;;;18.50;99.90;;;;;;4594290;19;20006;-69
2023/09/11 04:19:40;;;;;;;25.65;20.50;;;18.90;99.90;;;;;;4594163;19;19999;-69
2023/09/11 04:21:16;;;;;;;22.15;18.90;;;19.20;99.90;;;;;;4592743;19;20014;-69
2023/09/11 04:22:52;;;;;;;22.33;19.25;;;19.40;99.90;;;;;;4594162;19;20002;-69
2023/09/11 04:24:26;;;;;;;22.33;18.98;;;19.60;99.90;;;;;;4594021;19;20066;-69
2023/09/11 04:26:02;;;;;;;22.00;18.70;;;19.80;99.90;;;;;;4594050;19;20002;-69
2023/09/11 04:27:51;;;;;;;20.52;17.58;;;19.90;99.90;;;;;;4592497;19;20029;-69
2023/09/11 04:29:27;;;;;;;22.50;17.88;;;20.00;99.90;;;;;;4594259;19;20434;-68
2023/09/11 04:31:01;;;;;;;19.88;17.13;;;20.10;99.90;;;;;;4592899;19;20007;-69
2023/09/11 04:32:36;;;;;;;20.98;18.65;;;20.30;99.90;;;;;;4592321;19;20082;-69
2023/09/11 04:34:11;;;;;;;20.27;18.17;;;20.40;99.90;;;;;;4593997;19;20010;-69
2023/09/11 04:35:45;;;;;;;22.20;17.83;;;20.50;99.90;;;;;;4593726;19;20074;-69
2023/09/11 04:37:19;;;;;;;20.77;17.38;;;20.60;99.90;;;;;;4593795;19;19998;-69
2023/09/11 04:38:55;;;;;;;21.63;18.83;;;20.80;99.90;;;;;;4593983;19;20422;-68
2023/09/11 04:40:29;;;;;;;20.63;17.17;;;20.90;99.90;;;;;;4593171;19;20284;-68
2023/09/11 04:42:07;;;;;;;20.17;17.38;;;21.00;99.90;;;;;;4592898;19;20361;-69
2023/09/11 04:43:43;;;;;;;20.05;17.55;;;21.10;99.90;;;;;;4592353;19;20010;-68
2023/09/11 04:45:17;;;;;;;19.25;17.15;;;21.20;99.90;;;;;;4593274;19;20325;-68
2023/09/11 04:46:51;;;;;;;21.17;17.52;;;21.30;99.90;;;;;;4593860;19;20019;-69
2023/09/11 04:48:32;;;;;;;25.45;18.95;;;21.40;99.90;;;;;;4592517;19;20014;-69
2023/09/11 04:50:06;;;;;;;21.58;17.77;;;21.40;99.90;;;;;;4592420;19;20321;-69
2023/09/11 04:51:40;;;;;;;21.20;19.00;;;21.50;99.90;;;;;;4592663;19;20010;-69
2023/09/11 04:53:16;;;;;;;21.63;18.05;;;21.60;99.90;;;;;;4593672;19;20006;-69
2023/09/11 04:54:50;;;;;;;21.83;19.08;;;21.70;99.90;;;;;;4592951;19;20314;-69
2023/09/11 04:56:24;;;;;;;21.25;18.50;;;21.60;99.90;;;;;;4591895;19;19998;-69
2023/09/11 04:58:00;;;;;;;20.50;17.92;;;21.70;99.90;;;;;;4592481;19;20030;-68
2023/09/11 04:59:33;;;;;;;25.30;18.50;;;21.70;99.90;;;;;;4592547;19;20074;-69
2023/09/11 05:01:08;;;;;;;21.83;18.42;;;21.80;99.90;;;;;;4592499;19;20006;-69
2023/09/11 05:02:46;;;;;;;23.15;18.83;;;21.80;99.90;;;;;;4591494;19;20032;-69
2023/09/11 05:04:20;;;;;;;23.77;18.27;;;21.70;99.90;;;;;;4592203;19;20010;-69
2023/09/11 05:05:53;;;;;;;23.17;18.90;;;21.70;99.90;;;;;;4592590;19;19999;-69
2023/09/11 05:07:30;;;;;;;23.67;18.58;;;21.70;99.90;;;;;;4592499;19;20339;-69
2023/09/11 05:09:05;;;;;;;22.33;17.52;;;21.70;99.90;;;;;;4591153;19;20002;-69
2023/09/11 05:10:43;;;;;;;22.50;20.05;;;21.70;99.90;;;;;;4591072;19;20022;-69
2023/09/11 05:12:18;;;;;;;25.20;19.02;;;21.70;99.90;;;;;;4592353;19;20007;-68
2023/09/11 05:13:56;;;;;;;22.13;18.45;;;21.70;99.90;;;;;;4591275;19;20017;-68
2023/09/11 05:15:30;;;;;;;22.05;18.73;;;21.70;99.90;;;;;;4591913;19;20015;-68
2023/09/11 05:17:06;;;;;;;22.05;18.45;;;21.70;99.90;;;;;;4592547;19;20006;-68
2023/09/11 05:18:40;;;;;;;19.60;17.23;;;21.70;99.90;;;;;;4593013;19;20002;-69
2023/09/11 05:20:15;;;;;;;21.85;17.85;;;21.70;99.90;;;;;;4591637;19;20333;-69
2023/09/11 05:22:02;;;;;;;21.27;19.02;;;21.70;99.90;;;;;;4590962;19;20106;-68
2023/09/11 05:23:50;;;;;;;24.38;18.65;;;21.60;99.90;;;;;;4590893;19;20014;-69
2023/09/11 05:25:30;;;;;;;22.63;20.20;;;21.50;99.90;;;;;;4592391;19;20017;-68
2023/09/11 05:27:05;;;;;;;21.45;18.17;;;21.40;99.90;;;;;;4592288;19;20319;-69
2023/09/11 05:28:40;;;;;;;23.00;18.98;;;21.30;99.90;;;;;;4592235;19;20004;-69
2023/09/11 05:30:16;;;;;;;23.63;18.80;;;21.20;99.90;;;;;;4591569;19;20003;-69
2023/09/11 05:31:50;;;;;;;22.08;19.70;;;21.30;99.90;;;;;;4592288;19;20434;-70
2023/09/11 05:33:24;;;;;;;24.25;20.55;;;21.30;99.90;;;;;;4591940;19;20430;-70
2023/09/11 05:35:01;;;;;;;22.27;19.85;;;21.20;99.90;;;;;;4592039;19;20011;-70
2023/09/11 05:36:35;;;;;;;24.27;20.77;;;21.20;99.90;;;;;;4591950;19;20334;-70
2023/09/11 05:38:09;;;;;;;26.02;21.33;;;21.20;99.90;;;;;;4591942;19;20021;-70
2023/09/11 05:39:56;;;;;;;28.67;21.42;;;21.10;99.90;;;;;;4590440;19;20022;-70
2023/09/11 05:41:32;;;;;;;28.00;22.08;;;21.10;99.90;;;;;;4591875;19;20031;-70
2023/09/11 05:43:07;;;;;;;28.13;22.40;;;21.10;99.90;;;;;;4590307;19;20483;-70
2023/09/11 05:44:43;;;;;;;26.10;21.27;;;21.00;99.90;;;;;;4591350;19;20276;-69
2023/09/11 05:46:19;;;;;;;30.90;24.08;;;21.10;99.90;;;;;;4591680;19;20006;-70
2023/09/11 05:47:54;;;;;;;32.17;24.85;;;21.10;99.90;;;;;;4591664;19;20436;-70
2023/09/11 05:49:29;;;;;;;31.23;23.75;;;21.00;99.90;;;;;;4590324;19;20010;-70
2023/09/11 05:51:07;;;;;;;29.35;24.80;;;21.00;99.90;;;;;;4591475;19;19999;-70
2023/09/11 05:52:41;;;;;;;28.60;24.67;;;21.00;99.90;;;;;;4591620;19;20018;-70
2023/09/11 05:54:15;;;;;;;28.15;24.98;;;21.00;99.90;;;;;;4591707;19;20009;-70
2023/09/11 05:56:02;;;;;;;26.90;23.08;;;21.00;99.90;;;;;;4590098;19;20037;-70
2023/09/11 05:57:38;;;;;;;30.00;24.20;;;21.00;99.90;;;;;;4591632;19;20006;-70
2023/09/11 05:59:12;;;;;;;26.48;23.67;;;21.00;99.90;;;;;;4591543;19;20002;-69
2023/09/11 06:00:46;;;;;;;27.88;24.25;;;21.00;99.90;;;;;;4590477;19;20006;-69
2023/09/11 06:02:22;;;;;;;26.30;23.38;;;21.00;99.90;;;;;;4590957;19;20011;-69
2023/09/11 06:03:56;;;;;;;28.90;24.48;;;20.90;99.90;;;;;;4588895;19;20010;-70
2023/09/11 06:05:31;;;;;;;26.95;22.40;;;21.00;99.90;;;;;;4590983;19;20315;-70
2023/09/11 06:07:06;;;;;;;28.67;24.20;;;21.00;99.90;;;;;;4590298;19;20011;-70
2023/09/11 06:08:45;;;;;;;26.45;23.58;;;21.00;99.90;;;;;;4591073;19;20010;-70
2023/09/11 06:10:19;;;;;;;26.33;23.42;;;20.90;99.90;;;;;;4590539;19;20010;-70
2023/09/11 06:11:54;;;;;;;28.73;25.40;;;20.90;99.90;;;;;;4592018;19;20006;-70
2023/09/11 06:13:28;;;;;;;27.45;23.88;;;20.90;99.90;;;;;;4591231;19;20011;-70
2023/09/11 06:15:04;;;;;;;26.77;23.98;;;20.90;99.90;;;;;;4591285;19;20018;-70
2023/09/11 06:16:40;;;;;;;27.50;24.00;;;21.00;99.90;;;;;;4591192;19;20007;-70
2023/09/11 06:18:14;;;;;;;27.77;24.17;;;20.90;99.90;;;;;;4591432;19;20035;-70
2023/09/11 06:19:49;;;;;;;25.42;22.73;;;20.90;99.90;;;;;;4590496;19;20011;-69
2023/09/11 06:21:24;;;;;;;27.75;24.70;;;20.90;99.90;;;;;;4588792;19;20430;-70
2023/09/11 06:23:02;;;;;;;26.73;24.10;;;20.90;99.90;;;;;;4589883;19;20017;-70
2023/09/11 06:24:38;;;;;;;27.90;25.10;;;20.90;99.90;;;;;;4590585;19;20002;-70
2023/09/11 06:26:25;;;;;;;27.88;24.98;;;20.90;99.90;;;;;;4589443;19;20010;-70
2023/09/11 06:28:00;;;;;;;27.70;24.88;;;20.90;99.90;;;;;;4591010;19;20029;-70
2023/09/11 06:29:35;;;;;;;27.30;24.45;;;20.90;99.90;;;;;;4590552;19;20019;-70
2023/09/11 06:31:09;;;;;;;27.10;24.30;;;20.90;99.90;;;;;;4590707;19;19994;-70
2023/09/11 06:32:45;;;;;;;30.05;25.10;;;20.90;99.90;;;;;;4591258;19;20014;-69
2023/09/11 06:34:19;;;;;;;28.45;25.52;;;20.90;99.90;;;;;;4590533;19;20342;-70
2023/09/11 06:36:00;;;;;;;28.30;25.45;;;20.90;99.90;;;;;;4589288;19;20010;-69
2023/09/11 06:37:35;;;;;;;27.13;24.35;;;20.90;99.90;;;;;;4590257;19;20018;-69
2023/09/11 06:39:09;;;;;;;26.85;24.23;;;20.90;99.90;;;;;;4590712;19;20294;-70
2023/09/11 06:40:44;;;;;;;28.65;25.50;;;20.80;99.90;;;;;;4589468;19;20012;-70
2023/09/11 06:42:22;;;;;;;28.45;25.63;;;20.80;99.90;;;;;;4588380;19;20195;-69
2023/09/11 06:43:59;;;;;;;28.13;25.13;;;20.80;99.90;;;;;;4590259;19;20011;-70
2023/09/11 06:45:34;;;;;;;28.50;25.70;;;20.90;99.90;;;;;;4590739;19;19998;-69
2023/09/11 06:47:09;;;;;;;26.35;23.33;;;20.80;99.90;;;;;;4590751;19;20003;-72
2023/09/11 06:48:44;;;;;;;24.17;21.58;;;21.00;99.90;;;;;;4590807;19;20443;-70
2023/09/11 06:50:18;;;;;;;22.90;20.50;;;21.10;99.90;;;;;;4589826;19;20041;-69
2023/09/11 06:52:06;;;;;;;22.73;20.20;;;21.30;99.90;;;;;;4588919;19;20011;-69
2023/09/11 06:53:41;;;;;;;20.50;18.48;;;21.40;99.90;;;;;;4590599;19;20015;-69
2023/09/11 06:55:15;;;;;;;21.25;19.08;;;21.40;99.90;;;;;;4590970;19;19999;-69
2023/09/11 06:56:50;;;;;;;21.73;19.35;;;21.50;99.90;;;;;;4591067;19;19999;-69
2023/09/11 06:58:38;;;;;;;21.63;19.42;;;21.60;99.90;;;;;;4591406;19;20006;-69
2023/09/11 07:00:12;;;;;;;23.30;20.90;;;21.70;99.90;;;;;;4590793;19;20010;-69
2023/09/11 07:01:47;;;;;;;27.95;24.80;;;21.70;99.90;;;;;;4589264;19;20018;-69
2023/09/11 07:03:23;;;;;;;29.27;26.08;;;21.60;99.90;;;;;;4591188;19;20102;-69
2023/09/11 07:04:57;;;;;;;30.17;25.83;;;21.40;99.90;;;;;;4591020;19;20007;-69
2023/09/11 07:06:32;;;;;;;30.60;27.55;;;21.30;99.90;;;;;;4589453;19;20018;-69
2023/09/11 07:08:08;;;;;;;29.15;26.17;;;21.20;99.90;;;;;;4590804;19;20025;-69
2023/09/11 07:09:42;;;;;;;31.30;26.05;;;21.20;99.90;;;;;;4591104;19;20001;-69
2023/09/11 07:11:18;;;;;;;29.88;26.90;;;21.20;99.90;;;;;;4591253;19;20003;-68
2023/09/11 07:12:55;;;;;;;29.65;26.25;;;21.20;99.90;;;;;;4591294;19;20006;-68
2023/09/11 07:14:29;;;;;;;28.52;25.42;;;21.20;99.90;;;;;;4589913;19;20003;-69
2023/09/11 07:16:04;;;;;;;28.55;25.45;;;21.20;99.90;;;;;;4590695;19;20093;-68
2023/09/11 07:17:39;;;;;;;30.60;27.48;;;21.30;99.90;;;;;;4595137;19;20047;-68
2023/09/11 07:19:14;;;;;;;29.55;26.52;;;21.40;99.90;;;;;;4595423;19;20012;-69
2023/09/11 07:20:50;;;;;;;28.67;25.75;;;21.50;99.90;;;;;;4592632;19;20050;-69
2023/09/11 07:22:26;;;;;;;29.58;26.42;;;21.50;99.90;;;;;;4593821;19;20028;-69
2023/09/11 07:24:00;;;;;;;26.23;23.58;;;21.50;99.90;;;;;;4595227;19;20015;-69
2023/09/11 07:25:35;;;;;;;26.83;23.75;;;21.60;99.90;;;;;;4595067;19;20429;-69
2023/09/11 07:27:11;;;;;;;24.92;22.52;;;21.80;99.90;;;;;;4595249;19;20006;-69
2023/09/11 07:28:58;;;;;;;26.48;21.88;;;21.90;99.90;;;;;;4593824;19;20453;-69
2023/09/11 07:30:32;;;;;;;24.90;22.50;;;22.00;99.90;;;;;;4592925;19;20006;-69
2023/09/11 07:32:08;;;;;;;25.05;22.40;;;22.10;99.90;;;;;;4594934;19;20298;-69
2023/09/11 07:33:46;;;;;;;24.15;21.65;;;22.20;99.90;;;;;;4593692;19;20140;-69
2023/09/11 07:35:22;;;;;;;24.73;22.23;;;22.20;99.90;;;;;;4594998;19;20002;-70
2023/09/11 07:36:57;;;;;;;22.70;20.50;;;22.30;99.90;;;;;;4595143;19;20023;-70
2023/09/11 07:38:33;;;;;;;27.05;24.17;;;22.30;99.90;;;;;;4595111;19;19998;-69
2023/09/11 07:40:07;;;;;;;23.65;21.38;;;22.30;99.90;;;;;;4594364;19;20070;-70
2023/09/11 07:41:45;;;;;;;23.98;21.58;;;22.40;99.90;;;;;;4594562;19;20085;-69
2023/09/11 07:43:24;;;;;;;22.95;20.52;;;22.40;99.90;;;;;;4594894;19;20029;-69
2023/09/11 07:44:58;;;;;;;23.63;21.35;;;22.50;99.90;;;;;;4595190;19;20062;-70
2023/09/11 07:46:33;;;;;;;22.52;20.23;;;22.50;99.90;;;;;;4595194;19;20346;-70
2023/09/11 07:48:08;;;;;;;22.15;20.02;;;22.50;99.90;;;;;;4594739;19;20066;-70
2023/09/11 07:49:42;;;;;;;24.52;22.02;;;22.60;99.90;;;;;;4594826;19;20019;-69
2023/09/11 07:51:18;;;;;;;22.48;20.08;;;22.60;99.90;;;;;;4593754;19;20003;-70
2023/09/11 07:52:51;;;;;;;24.10;21.77;;;22.60;99.90;;;;;;4594361;19;20020;-77
2023/09/11 07:54:25;;;;;;;22.60;20.38;;;22.60;99.90;;;;;;4595002;19;20299;-73
2023/09/11 07:56:08;;;;;;;23.15;21.05;;;22.60;99.90;;;;;;4595458;19;20022;-73
2023/09/11 07:57:42;;;;;;;24.10;21.70;;;22.70;99.90;;;;;;4595013;19;20422;-74
2023/09/11 07:59:16;;;;;;;22.40;20.20;;;22.70;99.90;;;;;;4594472;19;20010;-74
2023/09/11 08:00:52;;;;;;;22.08;19.77;;;22.70;99.90;;;;;;4593711;19;20014;-73
2023/09/11 08:02:26;;;;;;;22.77;20.58;;;22.80;99.90;;;;;;4593544;19;19998;-73
2023/09/11 08:04:02;;;;;;;21.48;19.38;;;22.80;99.90;;;;;;4594514;19;20002;-73
2023/09/11 08:05:38;;;;;;;21.67;19.52;;;22.80;99.90;;;;;;4594837;19;20016;-73
2023/09/11 08:07:13;;;;;;;22.15;20.10;;;22.80;99.90;;;;;;4594473;19;20022;-73
2023/09/11 08:08:47;;;;;;;21.35;19.27;;;22.80;99.90;;;;;;4594460;19;20005;-73
2023/09/11 08:10:23;;;;;;;22.50;20.35;;;22.80;99.90;;;;;;4593609;19;20437;-73
2023/09/11 08:11:58;;;;;;;22.38;20.17;;;22.80;99.90;;;;;;4594309;19;20013;-73